Flight Track Log - Related Links

Times and Time Zones

All times are in EDT time to prevent confusion due to time zone crossing. See the JA-738J flight status page for this flight to view local times or setup timezone preferences in your user account.

Time Position Orientation Groundspeed Altitude Reporting Facility
EDT Latitude Longitude Course Direction KTS MPH feet Rate Location/Type
Mon 04:43:07 AM 35.7180 140.4090 150° Southeast 197 227 2,000  Level FlightAware ADS-B
Mon 04:43:32 AM 35.6980 140.4230 150° Southeast 212 244 2,600 1,745 Climbing FlightAware ADS-B
Mon 04:44:02 AM 35.6710 140.4430 149° Southeast 224 258 3,600 1,527 Climbing FlightAware ADS-B
Mon 04:44:27 AM 35.6460 140.4610 150° Southeast 261 300 4,000 1,440 Climbing FlightAware ADS-B
Mon 04:44:52 AM 35.6200 140.4800 149° Southeast 276 318 4,800 2,200 Climbing FlightAware ADS-B
Mon 04:45:27 AM 35.5800 140.5090 149° Southeast 283 326 6,200 1,900 Climbing FlightAware ADS-B
Mon 04:45:52 AM 35.5540 140.5340 142° Southeast 301 346 6,700 900 Climbing FlightAware ADS-B
Mon 04:46:07 AM 35.5450 140.5560 117° Southeast 288 331 6,800 200 Climbing FlightAware ADS-B
Mon 04:46:22 AM 35.5410 140.5820 101° East 286 329 6,800 133 Level FlightAware ADS-B
Mon 04:46:52 AM 35.5370 140.6260 96° East 285 328 6,900 436 Climbing FlightAware ADS-B
Mon 04:47:17 AM 35.5340 140.6710 95° East 290 334 7,200 900 Climbing FlightAware ADS-B
Mon 04:47:32 AM 35.5310 140.6960 98° East 292 336 7,500 900 Climbing FlightAware ADS-B
Mon 04:47:57 AM 35.5280 140.7310 96° East 295 339 7,800 1,080 Climbing FlightAware ADS-B
Mon 04:48:22 AM 35.5240 140.7710 97° East 299 344 8,400 1,900 Climbing FlightAware ADS-B
Mon 04:48:57 AM 35.5180 140.8330 97° East 309 356 9,700 1,600 Climbing FlightAware ADS-B
Mon 04:49:37 AM 35.5110 140.9090 96° East 351 404 10,400 1,271 Climbing FlightAware ADS-B
Mon 04:50:22 AM 35.5020 141.0020 97° East 379 436 11,500 1,553 Climbing FlightAware ADS-B
Mon 04:51:02 AM 35.5030 141.0930 89° East 398 458 12,600 1,929 Climbing FlightAware ADS-B
Mon 04:51:57 AM 35.5420 141.2010 66° East 14,400 2,040 Climbing FlightAware ADS-B
Mon 04:52:42 AM 35.5840 141.3080 64° Northeast 427 491 16,000 2,118 Climbing FlightAware ADS-B
Mon 04:53:22 AM 35.6180 141.3930 64° Northeast 434 499 17,400 2,000 Climbing FlightAware ADS-B
Mon 04:53:57 AM 35.6460 141.4630 64° Northeast 440 506 18,500 2,040 Climbing FlightAware ADS-B
Mon 04:55:02 AM 35.7070 141.6180 64° Northeast 452 520 20,800 2,000 Climbing FlightAware ADS-B
Mon 04:55:42 AM 35.7430 141.7110 64° Northeast 459 528 22,000 1,800 Climbing FlightAware ADS-B
Mon 04:56:22 AM 35.7810 141.8090 64° Northeast 468 539 23,200 1,624 Climbing FlightAware ADS-B
Mon 04:57:07 AM 35.8230 141.9170 64° Northeast 475 547 24,300 1,341 Climbing FlightAware ADS-B
Mon 04:57:47 AM 35.8620 142.0160 64° Northeast 494 568 25,100 1,280 Climbing FlightAware ADS-B
Mon 04:58:22 AM 35.8950 142.1010 64° Northeast 498 573 25,900 1,440 Climbing FlightAware ADS-B
Mon 04:59:27 AM 35.9620 142.2760 65° Northeast 505 581 27,500 1,364 Climbing FlightAware ADS-B
Mon 05:00:12 AM 36.0090 142.3970 64° Northeast 517 595 28,400 750 Climbing FlightAware ADS-B
Mon 05:00:47 AM 36.0320 142.4600 66° East 517 595 28,500 1,280 Climbing FlightAware ADS-B
Mon 05:01:27 AM 36.0860 142.5990 64° Northeast 529 609 30,000 900 Climbing FlightAware ADS-B
Mon 05:02:27 AM 36.1460 142.7580 65° Northeast 529 609 30,000  Level FlightAware ADS-B
Mon 05:03:12 AM 36.1880 142.8700 65° Northeast 529 609 30,000  Level FlightAware ADS-B
Mon 05:03:52 AM 36.2240 142.9640 65° Northeast 529 609 30,000  Level FlightAware ADS-B
Mon 05:04:32 AM 36.2590 143.0570 65° Northeast 529 609 30,000  Level FlightAware ADS-B
Mon 05:05:12 AM 36.2940 143.1510 65° Northeast 529 609 30,000  Level FlightAware ADS-B
Mon 05:06:02 AM 36.3380 143.2680 65° Northeast 529 609 30,000 17 Level FlightAware ADS-B
Mon 07:00:59 AM 45.1333 163.3667 66° East 535 616 32,000 17 Climbing Oakland Oceanic (ODAPS)
Mon 07:02:47 AM 45.2667 163.7833 66° East 535 616 32,000 41 Level Oakland Oceanic (ODAPS)
Mon 07:08:18 AM 45.6000 164.8500 67° East 533 613 32,300 32 Climbing Oakland Oceanic (ODAPS)
Mon 07:34:30 AM 47.0000 170.0000 70° East 526 605 33,000 26 Climbing Oakland Oceanic (ODAPS)
Mon 07:34:58 AM 47.0333 170.1000 70° East 528 608 33,000  Level Oakland Oceanic (ODAPS)
Mon 08:01:39 AM 48.2167 175.4833 74° East 516 594 33,000 40 Level Oakland Oceanic (ODAPS)
Mon 08:24:33 AM 49.0000 180.0000 77° East 479 551 35,000 75 Climbing Oakland Oceanic (ODAPS)
Mon 08:28:27 AM 49.1000 -179.2667 78° East 475 547 35,000  Level Oakland Oceanic (ODAPS)
Mon 08:54:59 AM 49.7000 -174.0000 82° East 472 543 35,000  Level Oakland Oceanic (ODAPS)
Mon 09:15:29 AM 50.0000 -170.0000 77° East 468 539 35,000  Level Oakland Oceanic (ODAPS)
Mon 09:21:41 AM 50.1667 -168.8000 78° East 477 549 35,000  Level Oakland Oceanic (ODAPS)
Mon 09:48:20 AM 50.7500 -163.4500 82° East 481 554 35,000  Level Oakland Oceanic (ODAPS)
Mon 10:05:00 AM 51.0000 -160.0000 86° East 492 566 35,000  Level Oakland Oceanic (ODAPS)
Mon 10:15:01 AM 51.0667 -157.9000 88° East 494 568 35,000  Level Oakland Oceanic (ODAPS)
Mon 10:21:00 AM 51.0926 -156.5832 89° East 494 568 35,000  Level FlightAware Transoceanic
Mon 10:22:00 AM 51.0955 -156.3636 89° East 494 568 35,000  Level FlightAware Transoceanic
Mon 10:23:00 AM 51.0979 -156.1439 89° East 494 568 35,000  Level FlightAware Transoceanic
Mon 10:24:00 AM 51.1000 -155.9243 89° East 494 568 35,000  Level FlightAware Transoceanic
Mon 10:25:00 AM 51.1016 -155.7046 89° East 494 568 35,000  Level FlightAware Transoceanic
Mon 10:26:00 AM 51.1028 -155.4850 90° East 494 568 35,000  Level FlightAware Transoceanic
Mon 10:27:00 AM 51.1037 -155.2653 90° East 494 568 35,000  Level FlightAware Transoceanic
Mon 10:28:00 AM 51.1041 -155.0456 90° East 494 568 35,000  Level FlightAware Transoceanic
Mon 10:29:00 AM 51.1041 -154.8259 90° East 494 568 35,000  Level FlightAware Transoceanic
Mon 10:30:00 AM 51.1037 -154.6062 90° East 494 568 35,000  Level FlightAware Transoceanic
Mon 10:31:00 AM 51.1028 -154.3865 90° East 494 568 35,000  Level FlightAware Transoceanic
Mon 10:32:00 AM 51.1016 -154.1668 91° East 494 568 35,000  Level FlightAware Transoceanic
Mon 10:33:00 AM 51.0999 -153.9471 91° East 494 568 35,000  Level FlightAware Transoceanic
Mon 10:34:00 AM 51.0979 -153.7275 91° East 494 568 35,000  Level FlightAware Transoceanic
Mon 10:35:00 AM 51.0954 -153.5079 91° East 494 568 35,000  Level FlightAware Transoceanic
Mon 10:36:00 AM 51.0925 -153.2883 91° East 494 568 35,000  Level FlightAware Transoceanic
Mon 10:37:00 AM 51.0892 -153.0687 91° East 494 568 35,000  Level FlightAware Transoceanic
Mon 10:38:00 AM 51.0855 -152.8492 92° East 494 568 35,000  Level FlightAware Transoceanic
Mon 10:39:00 AM 51.0814 -152.6297 92° East 494 568 35,000  Level FlightAware Transoceanic
Mon 10:40:00 AM 51.0769 -152.4102 92° East 494 568 35,000  Level FlightAware Transoceanic
Mon 10:41:00 AM 51.0719 -152.1908 92° East 494 568 35,000  Level FlightAware Transoceanic
Mon 10:41:42 AM 51.0667 -152.1667 92° East 512 589 35,000  Level Oakland Oceanic (ODAPS)
Mon 10:42:00 AM 51.0666 -151.9715 92° East 494 568 35,000  Level FlightAware Transoceanic
Mon 10:43:00 AM 51.0608 -151.7521 92° East 494 568 35,000  Level FlightAware Transoceanic
Mon 10:44:00 AM 51.0547 -151.5329 93° East 494 568 35,000  Level FlightAware Transoceanic
Mon 10:45:00 AM 51.0481 -151.3137 93° East 494 568 35,000  Level FlightAware Transoceanic
Mon 10:46:00 AM 51.0411 -151.0946 93° East 494 568 35,000  Level FlightAware Transoceanic
Mon 10:47:00 AM 51.0337 -150.8755 93° East 494 568 35,000  Level FlightAware Transoceanic
Mon 10:48:00 AM 51.0267 -150.7215 93° East 512 589 35,000  Level FlightAware Transoceanic
Mon 10:49:00 AM 51.0183 -150.4809 93° East 512 589 35,000  Level FlightAware Transoceanic
Mon 10:50:00 AM 51.0094 -150.2404 93° East 512 589 35,000  Level FlightAware Transoceanic
Mon 10:51:00 AM 51.0000 -150.0000 103° East 512 589 35,000  Level FlightAware Transoceanic
Mon 10:51:41 AM 51.0000 -150.0000 103° East 498 573 35,000  Level Oakland Oceanic (ODAPS)
Mon 10:52:00 AM 50.9666 -149.7790 104° East 512 589 35,000  Level FlightAware Transoceanic
Mon 10:53:00 AM 50.9328 -149.5583 104° East 512 589 35,000  Level FlightAware Transoceanic
Mon 10:54:00 AM 50.8986 -149.3379 104° East 512 589 35,000  Level FlightAware Transoceanic
Mon 10:55:00 AM 50.8640 -149.1178 104° East 512 589 35,000  Level FlightAware Transoceanic
Mon 10:56:00 AM 50.8289 -148.8981 104° East 512 589 35,000  Level FlightAware Transoceanic
Mon 10:57:00 AM 50.7934 -148.6787 104° East 512 589 35,000  Level FlightAware Transoceanic
Mon 10:58:00 AM 50.7979 -148.7061 104° East 498 573 35,000  Level FlightAware Transoceanic
Mon 10:59:00 AM 50.7628 -148.4915 105° East 498 573 35,000  Level FlightAware Transoceanic
Mon 11:00:00 AM 50.7274 -148.2773 105° East 498 573 35,000  Level FlightAware Transoceanic
Mon 11:01:00 AM 50.6915 -148.0634 105° East 498 573 35,000  Level FlightAware Transoceanic
Mon 11:02:00 AM 50.6553 -147.8498 105° East 498 573 35,000  Level FlightAware Transoceanic
Mon 11:03:00 AM 50.6186 -147.6366 105° East 498 573 35,000  Level FlightAware Transoceanic
Mon 11:04:00 AM 50.5816 -147.4237 105° East 498 573 35,000  Level FlightAware Transoceanic
Mon 11:05:00 AM 50.5442 -147.2111 106° East 498 573 35,000  Level FlightAware Transoceanic
Mon 11:06:00 AM 50.5064 -146.9989 106° East 498 573 35,000  Level FlightAware Transoceanic
Mon 11:07:00 AM 50.4683 -146.7870 106° East 498 573 35,000  Level FlightAware Transoceanic
Mon 11:08:00 AM 50.4297 -146.5755 106° East 498 573 35,000 732 Level FlightAware Transoceanic
Mon 11:08:22 AM 50.4167 -146.5000 106° East 506 582 36,000  Climbing Oakland Oceanic (ODAPS)
Mon 11:09:00 AM 50.3907 -146.3642 106° East 498 573 35,000 -612 Descending FlightAware Transoceanic
Mon 11:10:00 AM 50.3514 -146.1534 106° East 498 573 35,000  Level FlightAware Transoceanic
Mon 11:11:00 AM 50.3117 -145.9429 107° East 498 573 35,000  Level FlightAware Transoceanic
Mon 11:12:00 AM 50.2716 -145.7327 107° East 498 573 35,000  Level FlightAware Transoceanic
Mon 11:13:00 AM 50.2311 -145.5229 107° East 498 573 35,000 500 Level FlightAware Transoceanic
Mon 11:14:00 AM 50.1791 -145.2528 107° East 506 582 36,000 500 Climbing FlightAware Transoceanic
Mon 11:15:00 AM 50.1382 -145.0462 107° East 506 582 36,000  Level FlightAware Transoceanic
Mon 11:16:00 AM 50.0969 -144.8399 107° East 506 582 36,000  Level FlightAware Transoceanic
Mon 11:17:00 AM 50.0553 -144.6339 108° East 506 582 36,000  Level FlightAware Transoceanic
Mon 11:18:00 AM 50.0133 -144.4284 108° East 506 582 36,000  Level FlightAware Transoceanic
Mon 11:19:00 AM 49.9710 -144.2231 108° East 506 582 36,000  Level FlightAware Transoceanic
Mon 11:20:00 AM 49.9282 -144.0183 108° East 506 582 36,000  Level FlightAware Transoceanic
Mon 11:21:00 AM 49.8852 -143.8138 108° East 506 582 36,000  Level FlightAware Transoceanic
Mon 11:22:00 AM 49.8417 -143.6097 108° East 506 582 36,000  Level FlightAware Transoceanic
Mon 11:23:00 AM 49.7980 -143.4059 109° East 506 582 36,000  Level FlightAware Transoceanic
Mon 11:24:00 AM 49.7538 -143.2026 109° East 506 582 36,000  Level FlightAware Transoceanic
Mon 11:25:00 AM 49.7093 -142.9995 109° East 506 582 36,000  Level FlightAware Transoceanic
Mon 11:26:00 AM 49.6645 -142.7969 109° East 506 582 36,000  Level FlightAware Transoceanic
Mon 11:27:00 AM 49.6193 -142.5946 109° East 506 582 36,000  Level FlightAware Transoceanic
Mon 11:28:00 AM 49.5737 -142.3927 109° East 506 582 36,000  Level FlightAware Transoceanic
Mon 11:29:00 AM 49.5278 -142.1912 109° East 506 582 36,000  Level FlightAware Transoceanic
Mon 11:30:00 AM 49.4815 -141.9901 110° East 506 582 36,000  Level FlightAware Transoceanic
Mon 11:31:00 AM 49.4349 -141.7894 110° East 506 582 36,000  Level FlightAware Transoceanic
Mon 11:32:00 AM 49.3880 -141.5890 110° East 506 582 36,000  Level FlightAware Transoceanic
Mon 11:33:00 AM 49.3407 -141.3890 110° East 506 582 36,000  Level FlightAware Transoceanic
Mon 11:34:00 AM 49.2930 -141.1894 110° East 506 582 36,000  Level FlightAware Transoceanic
Mon 11:35:00 AM 49.2450 -140.9902 110° East 506 582 36,000  Level FlightAware Transoceanic
Mon 11:35:03 AM 49.2500 -141.0167 110° East 517 595 36,000  Level Oakland Oceanic (ODAPS)
Mon 11:36:00 AM 49.1967 -140.7914 110° East 506 582 36,000  Level FlightAware Transoceanic
Mon 11:37:00 AM 49.1480 -140.5930 111° Southeast 506 582 36,000  Level FlightAware Transoceanic
Mon 11:38:00 AM 49.0990 -140.3949 111° Southeast 506 582 36,000  Level FlightAware Transoceanic
Mon 11:39:00 AM 49.0497 -140.1973 111° Southeast 506 582 36,000  Level FlightAware Transoceanic
Mon 11:40:00 AM 49.0000 -140.0000 122° Southeast 506 582 36,000  Level FlightAware Transoceanic
Mon 11:40:02 AM 49.0000 -140.0000 122° Southeast 512 589 36,000  Level Oakland Oceanic (ODAPS)
Mon 11:41:00 AM 48.9202 -139.8082 122° Southeast 517 595 36,000  Level FlightAware Transoceanic
Mon 11:42:00 AM 48.8401 -139.6171 123° Southeast 517 595 36,000  Level FlightAware Transoceanic
Mon 11:43:00 AM 48.7598 -139.4265 123° Southeast 517 595 36,000  Level FlightAware Transoceanic
Mon 11:44:00 AM 48.6790 -139.2365 123° Southeast 517 595 36,000  Level FlightAware Transoceanic
Mon 11:45:00 AM 48.5980 -139.0472 123° Southeast 517 595 36,000  Level FlightAware Transoceanic
Mon 11:46:00 AM 48.5411 -138.9150 123° Southeast 512 589 36,000  Level FlightAware Transoceanic
Mon 11:47:00 AM 48.4636 -138.7361 123° Southeast 512 589 36,000  Level FlightAware Transoceanic
Mon 11:48:00 AM 48.3859 -138.5578 123° Southeast 512 589 36,000  Level FlightAware Transoceanic
Mon 11:49:00 AM 48.3079 -138.3799 123° Southeast 512 589 36,000  Level FlightAware Transoceanic
Mon 11:50:00 AM 48.2296 -138.2027 124° Southeast 512 589 36,000  Level FlightAware Transoceanic
Mon 11:51:00 AM 48.1510 -138.0260 124° Southeast 512 589 36,000  Level FlightAware Transoceanic
Mon 11:52:00 AM 48.0722 -137.8498 124° Southeast 512 589 36,000  Level FlightAware Transoceanic
Mon 11:53:00 AM 47.9931 -137.6741 124° Southeast 512 589 36,000  Level FlightAware Transoceanic
Mon 11:54:00 AM 47.9137 -137.4990 124° Southeast 512 589 36,000  Level FlightAware Transoceanic
Mon 11:55:00 AM 47.8341 -137.3244 124° Southeast 512 589 36,000  Level FlightAware Transoceanic
Mon 11:56:00 AM 47.7542 -137.1504 124° Southeast 512 589 36,000  Level FlightAware Transoceanic
Mon 11:57:00 AM 47.6741 -136.9769 125° Southeast 512 589 36,000  Level FlightAware Transoceanic
Mon 11:58:00 AM 47.5936 -136.8039 125° Southeast 512 589 36,000  Level FlightAware Transoceanic
Mon 11:59:00 AM 47.5130 -136.6315 125° Southeast 512 589 36,000  Level FlightAware Transoceanic
Mon 12:00:00 PM 47.4320 -136.4596 125° Southeast 512 589 36,000  Level FlightAware Transoceanic
Mon 12:01:00 PM 47.3508 -136.2882 125° Southeast 512 589 36,000  Level FlightAware Transoceanic
Mon 12:01:44 PM 47.2833 -136.1500 125° Southeast 511 588 36,000  Level Oakland Oceanic (ODAPS)
Mon 12:02:00 PM 47.2694 -136.1174 125° Southeast 512 589 36,000  Level FlightAware Transoceanic
Mon 12:03:00 PM 47.1877 -135.9470 125° Southeast 512 589 36,000  Level FlightAware Transoceanic
Mon 12:04:00 PM 47.1057 -135.7772 125° Southeast 512 589 36,000  Level FlightAware Transoceanic
Mon 12:05:00 PM 47.0235 -135.6080 126° Southeast 512 589 36,000  Level FlightAware Transoceanic
Mon 12:06:00 PM 46.9411 -135.4392 126° Southeast 512 589 36,000  Level FlightAware Transoceanic
Mon 12:07:00 PM 46.8707 -135.2989 126° Southeast 511 588 36,000  Level FlightAware Transoceanic
Mon 12:08:00 PM 46.7874 -135.1303 126° Southeast 511 588 36,000  Level FlightAware Transoceanic
Mon 12:09:00 PM 46.7039 -134.9621 126° Southeast 511 588 36,000  Level FlightAware Transoceanic
Mon 12:10:00 PM 46.6201 -134.7945 126° Southeast 511 588 36,000  Level FlightAware Transoceanic
Mon 12:11:00 PM 46.5361 -134.6275 126° Southeast 511 588 36,000  Level FlightAware Transoceanic
Mon 12:12:00 PM 46.4519 -134.4609 126° Southeast 511 588 36,000  Level FlightAware Transoceanic
Mon 12:13:00 PM 46.3674 -134.2948 126° Southeast 511 588 36,000  Level FlightAware Transoceanic
Mon 12:14:00 PM 46.2826 -134.1293 127° Southeast 511 588 36,000  Level FlightAware Transoceanic
Mon 12:15:00 PM 46.1977 -133.9643 127° Southeast 511 588 36,000  Level FlightAware Transoceanic
Mon 12:16:00 PM 46.1124 -133.7998 127° Southeast 511 588 36,000  Level FlightAware Transoceanic
Mon 12:17:00 PM 46.0270 -133.6358 127° Southeast 511 588 36,000  Level FlightAware Transoceanic
Mon 12:18:00 PM 45.9413 -133.4723 127° Southeast 511 588 36,000  Level FlightAware Transoceanic
Mon 12:19:00 PM 45.8554 -133.3093 127° Southeast 511 588 36,000  Level FlightAware Transoceanic
Mon 12:20:00 PM 45.7693 -133.1468 127° Southeast 511 588 36,000  Level FlightAware Transoceanic
Mon 12:21:00 PM 45.6829 -132.9848 127° Southeast 511 588 36,000  Level FlightAware Transoceanic
Mon 12:22:00 PM 45.5963 -132.8233 128° Southeast 511 588 36,000  Level FlightAware Transoceanic
Mon 12:23:00 PM 45.5095 -132.6623 128° Southeast 511 588 36,000  Level FlightAware Transoceanic
Mon 12:24:00 PM 45.4224 -132.5018 128° Southeast 511 588 36,000  Level FlightAware Transoceanic
Mon 12:25:00 PM 45.3351 -132.3418 128° Southeast 511 588 36,000  Level FlightAware Transoceanic
Mon 12:26:00 PM 45.2476 -132.1823 128° Southeast 511 588 36,000  Level FlightAware Transoceanic
Mon 12:27:00 PM 45.1599 -132.0233 128° Southeast 511 588 36,000  Level FlightAware Transoceanic
Mon 12:28:00 PM 45.0720 -131.8648 128° Southeast 511 588 36,000  Level FlightAware Transoceanic
Mon 12:28:33 PM 45.0000 -131.7333 128° Southeast 516 594 36,000  Level Oakland Oceanic (ODAPS)
Mon 12:29:00 PM 44.9838 -131.7067 128° Southeast 511 588 36,000  Level FlightAware Transoceanic
Mon 12:30:00 PM 44.8954 -131.5492 128° Southeast 511 588 36,000  Level FlightAware Transoceanic
Mon 12:31:00 PM 44.8068 -131.3921 129° Southeast 511 588 36,000 531 Level FlightAware Transoceanic
Mon 12:31:53 PM 44.7000 -131.2000 129° Southeast 514 592 37,000  Climbing Oakland Oceanic (ODAPS)
Mon 12:32:00 PM 44.7180 -131.2355 129° Southeast 511 588 36,000 -896 Descending FlightAware Transoceanic
Mon 12:33:00 PM 44.6290 -131.0794 129° Southeast 511 588 36,000  Level FlightAware Transoceanic
Mon 12:34:00 PM 44.4578 -130.7805 129° Southeast 516 594 36,000  Level FlightAware Transoceanic
Mon 12:35:00 PM 44.3667 -130.6234 129° Southeast 516 594 36,000  Level FlightAware Transoceanic
Mon 12:36:00 PM 44.2753 -130.4668 129° Southeast 516 594 36,000  Level FlightAware Transoceanic
Mon 12:37:00 PM 44.1838 -130.3107 129° Southeast 516 594 36,000 500 Level FlightAware Transoceanic
Mon 12:38:00 PM 44.1008 -130.1697 130° Southeast 514 592 37,000 500 Climbing FlightAware Transoceanic
Mon 12:39:00 PM 44.0000 -130.0000 131° Southeast 514 592 37,000  Level FlightAware Transoceanic
Mon 12:39:32 PM 44.0000 -130.0000 131° Southeast 513 590 37,000  Level Oakland Oceanic (ODAPS)
Mon 12:40:00 PM 43.9065 -129.8505 131° Southeast 514 592 37,000  Level FlightAware Transoceanic
Mon 12:41:00 PM 43.8128 -129.7015 131° Southeast 514 592 37,000  Level FlightAware Transoceanic
Mon 12:42:00 PM 43.7189 -129.5530 131° Southeast 514 592 37,000  Level FlightAware Transoceanic
Mon 12:43:00 PM 43.6248 -129.4049 131° Southeast 514 592 37,000  Level FlightAware Transoceanic
Mon 12:44:00 PM 43.5306 -129.2573 131° Southeast 514 592 37,000  Level FlightAware Transoceanic
Mon 12:45:00 PM 43.4361 -129.1101 132° Southeast 513 590 37,000  Level FlightAware Transoceanic
Mon 12:46:00 PM 43.3415 -128.9634 132° Southeast 513 590 37,000  Level FlightAware Transoceanic
Mon 12:47:00 PM 43.2466 -128.8172 132° Southeast 513 590 37,000  Level FlightAware Transoceanic
Mon 12:48:00 PM 43.1516 -128.6714 132° Southeast 513 590 37,000  Level FlightAware Transoceanic
Mon 12:49:00 PM 43.0564 -128.5260 132° Southeast 513 590 37,000  Level FlightAware Transoceanic
Mon 12:50:00 PM 42.9610 -128.3812 132° Southeast 513 590 37,000  Level FlightAware Transoceanic
Mon 12:51:00 PM 42.8655 -128.2367 132° Southeast 513 590 37,000  Level FlightAware Transoceanic
Mon 12:52:00 PM 42.7697 -128.0927 132° Southeast 513 590 37,000  Level FlightAware Transoceanic
Mon 12:53:00 PM 42.6738 -127.9492 132° Southeast 513 590 37,000  Level FlightAware Transoceanic
Mon 12:54:00 PM 42.5777 -127.8061 132° Southeast 513 590 37,000  Level FlightAware Transoceanic
Mon 12:55:00 PM 42.4814 -127.6635 133° Southeast 513 590 37,000  Level FlightAware Transoceanic
Mon 12:55:05 PM 42.5333 -127.7500 132° Southeast 507 583 37,000  Level Oakland Oceanic (ODAPS)
Mon 12:56:00 PM 42.3849 -127.5212 133° Southeast 513 590 37,000  Level FlightAware Transoceanic
Mon 12:57:00 PM 42.2883 -127.3795 133° Southeast 513 590 37,000  Level FlightAware Transoceanic
Mon 12:58:00 PM 42.1915 -127.2381 133° Southeast 513 590 37,000  Level FlightAware Transoceanic
Mon 12:58:20 PM 42.2086 -127.2750 135° Southeast 512 589 37,000  Level Seattle Center
Mon 12:59:00 PM 42.0945 -127.0972 133° Southeast 513 590 37,000  Level FlightAware Transoceanic
Mon 12:59:21 PM 42.1114 -127.1356 133° Southeast 512 589 37,000  Level Seattle Center
Mon 01:00:00 PM 41.9973 -126.9567 133° Southeast 513 590 37,000  Level FlightAware Transoceanic
Mon 01:00:22 PM 42.0136 -126.9958 133° Southeast 513 590 37,000  Level Seattle Center
Mon 01:01:00 PM 41.9909 -126.9489 133° Southeast 507 583 37,000 -98 Level FlightAware Transoceanic
Mon 01:01:23 PM 41.9167 -126.8558 133° Southeast 514 592 36,900  Descending Seattle Center
Mon 01:02:00 PM 41.9000 -126.8167 135° Southeast 507 583 37,000 85 Climbing FlightAware Transoceanic
Mon 01:02:34 PM 41.7964 -126.6939 135° Southeast 513 590 37,000  Level Oakland Center
Mon 01:03:00 PM 41.7964 -126.6797 135° Southeast 507 583 37,000 -98 Level FlightAware Transoceanic
Mon 01:03:35 PM 41.6942 -126.5617 136° Southeast 512 589 36,900  Descending Oakland Center
Mon 01:04:26 PM 41.6139 -126.4550 135° Southeast 512 589 37,000  Climbing Seattle Center
Mon 01:05:27 PM 41.5133 -126.3194 135° Southeast 515 593 36,900  Descending Seattle Center
Mon 01:06:28 PM 41.4119 -126.1872 136° Southeast 513 590 37,000  Climbing Seattle Center
Mon 01:07:29 PM 41.3111 -126.0569 136° Southeast 508 585 36,900  Descending Seattle Center
Mon 01:08:30 PM 41.2131 -125.9244 135° Southeast 505 581 37,000 49 Climbing Seattle Center
Mon 01:09:31 PM 41.0911 -125.7706 136° Southeast 504 580 37,000 -49 Level Seattle Center
Mon 01:10:32 PM 40.9906 -125.6419 136° Southeast 505 581 36,900  Descending Seattle Center
Mon 01:11:33 PM 40.8900 -125.5133 136° Southeast 506 582 37,000 49 Climbing Seattle Center
Mon 01:12:34 PM 40.7883 -125.3861 137° Southeast 504 580 37,000 -79 Level Seattle Center
Mon 01:12:49 PM 40.7667 -125.3636 142° Southeast 504 580 36,900 -98 Descending Oakland Center
Mon 01:13:35 PM 40.6883 -125.2600 135° Southeast 503 579 36,900 15 Level Seattle Center
Mon 01:19:22 PM 40.0980 -124.5290 135° Southeast 497 572 37,000 16 Climbing FlightAware ADS-B
Mon 01:20:02 PM 40.0390 -124.4550 136° Southeast 498 573 37,000  Level FlightAware ADS-B
Mon 01:20:42 PM 39.9830 -124.3840 136° Southeast 498 573 37,000  Level FlightAware ADS-B
Mon 01:21:22 PM 39.9270 -124.3130 136° Southeast 498 573 37,000  Level FlightAware ADS-B
Mon 01:22:02 PM 39.8700 -124.2420 136° Southeast 498 573 37,000  Level FlightAware ADS-B
Mon 01:22:42 PM 39.8140 -124.1710 136° Southeast 498 573 37,000  Level FlightAware ADS-B
Mon 01:23:32 PM 39.6860 -124.0310 140° Southeast 495 570 37,000  Level FlightAware ADS-B
Mon 01:24:12 PM 39.6120 -123.9530 141° Southeast 489 563 37,000  Level FlightAware ADS-B
Mon 01:25:27 PM 39.4780 -123.8090 140° Southeast 489 563 37,000  Level FlightAware ADS-B
Mon 01:26:37 PM 39.3550 -123.6780 141° Southeast 487 560 37,000  Level FlightAware ADS-B
Mon 01:27:42 PM 39.2410 -123.5560 140° Southeast 487 560 37,000  Level FlightAware ADS-B
Mon 01:28:57 PM 39.1090 -123.4170 141° Southeast 488 562 37,000  Level FlightAware ADS-B
Mon 01:30:17 PM 38.9570 -123.2570 141° Southeast 496 571 37,000  Level FlightAware ADS-B
Mon 01:31:32 PM 38.8330 -123.1270 141° Southeast 495 570 37,000  Level FlightAware ADS-B
Mon 01:32:42 PM 38.7090 -122.9970 141° Southeast 494 568 37,000  Level FlightAware ADS-B
Mon 01:33:22 PM 38.6430 -122.9290 141° Southeast 494 568 37,000  Level FlightAware ADS-B
Mon 01:35:02 PM 38.4610 -122.7400 141° Southeast 492 566 37,000  Level FlightAware ADS-B
Mon 01:36:12 PM 38.3350 -122.6110 141° Southeast 485 558 37,000  Level FlightAware ADS-B
Mon 01:37:32 PM 38.1980 -122.4710 141° Southeast 491 565 37,000  Level FlightAware ADS-B
Mon 01:38:17 PM 38.1090 -122.3800 141° Southeast 490 564 37,000  Level FlightAware ADS-B
Mon 01:39:02 PM 38.0310 -122.3010 141° Southeast 490 564 37,000  Level FlightAware ADS-B
Mon 01:39:42 PM 37.9570 -122.2250 141° Southeast 489 563 37,000  Level FlightAware ADS-B
Mon 01:40:22 PM 37.8870 -122.1560 142° Southeast 489 563 37,000  Level FlightAware ADS-B
Mon 01:41:02 PM 37.8170 -122.0840 141° Southeast 488 562 37,000  Level FlightAware ADS-B
Mon 01:41:47 PM 37.7390 -122.0060 142° Southeast 488 562 37,000  Level FlightAware ADS-B
Mon 01:42:27 PM 37.6670 -121.9330 141° Southeast 488 562 37,000  Level FlightAware ADS-B
Mon 01:43:12 PM 37.5900 -121.8570 142° Southeast 488 562 37,000  Level FlightAware ADS-B
Mon 01:43:52 PM 37.5150 -121.7820 142° Southeast 491 565 37,000  Level FlightAware ADS-B
Mon 01:44:27 PM 37.4560 -121.7230 142° Southeast 492 566 37,000  Level FlightAware ADS-B
Mon 01:45:17 PM 37.3680 -121.6360 142° Southeast 492 566 37,000  Level FlightAware ADS-B
Mon 01:45:57 PM 37.2920 -121.5610 142° Southeast 493 567 37,000  Level FlightAware ADS-B
Mon 01:46:37 PM 37.2290 -121.4980 141° Southeast 493 567 37,000  Level FlightAware ADS-B
Mon 01:47:37 PM 37.1130 -121.3840 142° Southeast 494 568 37,000  Level FlightAware ADS-B
Mon 01:48:17 PM 37.0460 -121.3190 142° Southeast 494 568 37,000  Level FlightAware ADS-B
Mon 01:48:52 PM 36.9770 -121.2510 142° Southeast 497 572 37,000  Level FlightAware ADS-B
Mon 01:50:22 PM 36.8250 -121.1030 142° Southeast 495 570 37,000  Level FlightAware ADS-B
Mon 01:51:07 PM 36.7410 -121.0210 142° Southeast 495 570 37,000  Level FlightAware ADS-B
Mon 01:51:47 PM 36.6630 -120.9450 142° Southeast 497 572 37,000  Level FlightAware ADS-B
Mon 01:52:32 PM 36.5790 -120.8640 142° Southeast 498 573 37,000  Level FlightAware ADS-B
Mon 01:53:12 PM 36.5080 -120.7960 142° Southeast 500 575 37,000  Level FlightAware ADS-B
Mon 01:53:52 PM 36.4320 -120.7230 142° Southeast 500 575 37,000  Level FlightAware ADS-B
Mon 01:54:37 PM 36.3530 -120.6470 142° Southeast 500 575 37,000  Level FlightAware ADS-B
Mon 01:55:17 PM 36.2790 -120.5760 142° Southeast 501 577 37,000  Level FlightAware ADS-B
Mon 01:56:02 PM 36.1950 -120.4960 142° Southeast 499 574 37,000  Level FlightAware ADS-B
Mon 01:56:42 PM 36.1210 -120.4250 142° Southeast 499 574 37,000  Level FlightAware ADS-B
Mon 01:57:22 PM 36.0490 -120.3570 143° Southeast 499 574 37,000  Level FlightAware ADS-B
Mon 01:58:07 PM 35.9670 -120.2790 142° Southeast 500 575 37,000  Level FlightAware ADS-B
Mon 01:58:47 PM 35.8950 -120.2110 143° Southeast 501 577 37,000  Level FlightAware ADS-B
Mon 01:59:32 PM 35.8100 -120.1310 143° Southeast 500 575 37,000  Level FlightAware ADS-B
Mon 02:00:12 PM 35.7350 -120.0610 143° Southeast 502 578 37,000  Level FlightAware ADS-B
Mon 02:00:52 PM 35.6610 -119.9920 143° Southeast 503 579 37,000  Level FlightAware ADS-B
Mon 02:01:37 PM 35.5850 -119.9230 144° Southeast 501 577 37,000  Level FlightAware ADS-B
Mon 02:02:17 PM 35.5040 -119.8550 146° Southeast 495 570 37,000 -71 Level FlightAware ADS-B
Mon 02:03:02 PM 35.4170 -119.7810 145° Southeast 494 568 36,900 -988 Descending FlightAware ADS-B
Mon 02:03:42 PM 35.3420 -119.7160 145° Southeast 489 563 35,600 -2,025 Descending FlightAware ADS-B
Mon 02:04:22 PM 35.2680 -119.6520 145° Southeast 496 571 34,200 -2,753 Descending FlightAware ADS-B
Mon 02:05:07 PM 35.1850 -119.5810 145° Southeast 509 586 31,700 -2,965 Descending FlightAware ADS-B
Mon 02:05:47 PM 35.1090 -119.5160 145° Southeast 502 578 30,000 -2,188 Descending FlightAware ADS-B
Mon 02:06:32 PM 35.0240 -119.4430 145° Southeast 472 543 28,600 -2,188 Descending FlightAware ADS-B
Mon 02:07:12 PM 34.9520 -119.3820 145° Southeast 459 528 26,900 -2,259 Descending FlightAware ADS-B
Mon 02:07:57 PM 34.8760 -119.3180 145° Southeast 443 510 25,400 -1,765 Descending FlightAware ADS-B
Mon 02:08:37 PM 34.8110 -119.2630 145° Southeast 430 495 24,400 -1,906 Descending FlightAware ADS-B
Mon 02:09:22 PM 34.7390 -119.2020 145° Southeast 422 486 22,700 -2,118 Descending FlightAware ADS-B
Mon 02:10:02 PM 34.6780 -119.1500 145° Southeast 418 481 21,400 -1,950 Descending FlightAware ADS-B
Mon 02:10:42 PM 34.6120 -119.0950 146° Southeast 411 473 20,100 -1,875 Descending FlightAware ADS-B
Mon 02:11:22 PM 34.5490 -119.0420 145° Southeast 397 457 18,900 -1,776 Descending FlightAware ADS-B
Mon 02:12:47 PM 34.4260 -118.9390 145° Southeast 392 451 16,400 -1,800 Descending FlightAware ADS-B
Mon 02:13:22 PM 34.3720 -118.8950 146° Southeast 378 435 15,300 -1,765 Descending FlightAware ADS-B
Mon 02:14:12 PM 34.2920 -118.8570 159° South 372 428 13,900 -1,714 Descending FlightAware ADS-B
Mon 02:15:07 PM 34.2020 -118.8240 163° South 367 422 12,300 -1,389 Descending FlightAware ADS-B
Mon 02:15:47 PM 34.1410 -118.8020 163° South 340 391 11,700 -918 Descending FlightAware ADS-B
Mon 02:16:32 PM 34.0720 -118.7760 163° South 315 362 11,000 -900 Descending FlightAware ADS-B
Mon 02:16:47 PM 34.0540 -118.7620 147° Southeast 310 357 10,800 -800 Descending FlightAware ADS-B
Mon 02:17:32 PM 34.0320 -118.6970 112° Southeast 290 334 10,200 -771 Descending FlightAware ADS-B
Mon 02:17:57 PM 34.0290 -118.6600 96° East 281 323 9,900 -771 Descending FlightAware ADS-B
Mon 02:18:42 PM 34.0220 -118.5820 96° East 287 330 9,300 -900 Descending FlightAware ADS-B
Mon 02:18:57 PM 34.0200 -118.5580 96° East 287 330 9,000 -1,200 Descending FlightAware ADS-B
Mon 02:19:17 PM 34.0170 -118.5260 96° East 285 328 8,600 -982 Descending FlightAware ADS-B
Mon 02:19:52 PM 34.0130 -118.4820 96° East 281 323 8,100 -800 Descending FlightAware ADS-B
Mon 02:20:17 PM 34.0100 -118.4500 96° East 278 320 7,800 -764 Descending FlightAware ADS-B
Mon 02:20:47 PM 34.0110 -118.4020 89° East 259 298 7,400 -1,200 Descending FlightAware ADS-B
Mon 02:21:17 PM 34.0170 -118.3620 80° East 249 287 6,600 -1,964 Descending FlightAware ADS-B
Mon 02:21:42 PM 34.0220 -118.3240 81° East 249 287 5,600 -1,855 Descending FlightAware ADS-B
Mon 02:22:12 PM 34.0270 -118.2890 80° East 236 272 4,900 -1,855 Descending FlightAware ADS-B
Mon 02:22:37 PM 34.0340 -118.2410 80° East 200 230 3,900 -1,855 Descending FlightAware ADS-B
Mon 02:23:07 PM 34.0370 -118.2080 84° East 197 227 3,200 -1,200 Descending FlightAware ADS-B
Mon 02:23:17 PM 34.0330 -118.1990 118° Southeast 194 223 3,100 -600 Descending FlightAware ADS-B
Mon 02:23:37 PM 34.0210 -118.1910 151° Southeast 188 216 2,900 -514 Descending FlightAware ADS-B
Mon 02:23:52 PM 34.0040 -118.1880 172° South 190 219 2,800 -857 Descending FlightAware ADS-B
Mon 02:24:12 PM 33.9880 -118.1960 203° Southwest 192 221 2,400 -933 Descending FlightAware ADS-B
Mon 02:24:37 PM 33.9750 -118.2160 232° Southwest 187 215 2,100 -400 Descending FlightAware ADS-B
Mon 02:24:57 PM 33.9730 -118.2210 244° Southwest 188 216 2,100  Level FlightAware ADS-B
Mon 02:25:27 PM 33.9660 -118.2650 259° West 187 215 2,100 -133 Level FlightAware ADS-B
Mon 02:25:42 PM 33.9640 -118.2830 262° West 188 216 2,000 -750 Descending FlightAware ADS-B
Mon 02:26:07 PM 33.9620 -118.3060 264° West 166 191 1,600 -764 Descending FlightAware ADS-B
Mon 02:26:37 PM 33.9600 -118.3250 263° West 148 170 1,300 -600 Descending FlightAware ADS-B
Mon 02:27:07 PM 33.9580 -118.3460 263° West 147 169 1,000 -686 Descending FlightAware ADS-B
Mon 02:27:12 PM 33.9570 -118.3490 248° West 147 169 900 -900 Descending FlightAware ADS-B
Mon 02:27:47 PM 33.9540 -118.3820 264° West 147 169 400 -800 Descending FlightAware ADS-B
Mon 02:28:12 PM 33.9520 -118.4010 263° West 145 167 100 -360 Descending FlightAware ADS-B
Mon 02:28:37 PM 33.9500 -118.4200 263° West 145 167 100  Level FlightAware ADS-B

Login

Don't have an account? Register now (free) for customized features, flight alerts, and more!